sensor_id;sensor_type;location;lat;lon;timestamp;temperature;humidity
8910;DHT22;4490;49.072;8.804;2022-12-18T00:00:29;-6.40;99.90
8910;DHT22;4490;49.072;8.804;2022-12-18T00:02:55;-6.40;99.90
8910;DHT22;4490;49.072;8.804;2022-12-18T00:05:21;-6.40;99.90
8910;DHT22;4490;49.072;8.804;2022-12-18T00:07:47;-6.40;99.90
8910;DHT22;4490;49.072;8.804;2022-12-18T00:10:12;-6.40;99.90
8910;DHT22;4490;49.072;8.804;2022-12-18T00:12:38;-6.40;99.90
8910;DHT22;4490;49.072;8.804;2022-12-18T00:15:04;-6.40;99.90
8910;DHT22;4490;49.072;8.804;2022-12-18T00:17:30;-6.40;99.90
8910;DHT22;4490;49.072;8.804;2022-12-18T00:19:55;-6.40;99.90
8910;DHT22;4490;49.072;8.804;2022-12-18T00:22:21;-6.40;99.90
8910;DHT22;4490;49.072;8.804;2022-12-18T00:24:46;-6.30;99.90
8910;DHT22;4490;49.072;8.804;2022-12-18T00:27:12;-6.40;99.90
8910;DHT22;4490;49.072;8.804;2022-12-18T00:29:37;-6.30;99.90
8910;DHT22;4490;49.072;8.804;2022-12-18T00:32:03;-6.30;99.90
8910;DHT22;4490;49.072;8.804;2022-12-18T00:34:29;-6.30;99.90
8910;DHT22;4490;49.072;8.804;2022-12-18T00:36:54;-6.30;99.90
8910;DHT22;4490;49.072;8.804;2022-12-18T00:39:20;-6.30;99.90
8910;DHT22;4490;49.072;8.804;2022-12-18T00:41:46;-6.20;99.90
8910;DHT22;4490;49.072;8.804;2022-12-18T00:44:30;-6.20;99.90
8910;DHT22;4490;49.072;8.804;2022-12-18T00:46:55;-6.20;99.90
8910;DHT22;4490;49.072;8.804;2022-12-18T00:49:21;-6.20;99.90
8910;DHT22;4490;49.072;8.804;2022-12-18T00:51:47;-6.20;99.90
8910;DHT22;4490;49.072;8.804;2022-12-18T00:54:13;-6.30;99.90
8910;DHT22;4490;49.072;8.804;2022-12-18T00:56:39;-6.30;99.90
8910;DHT22;4490;49.072;8.804;2022-12-18T00:59:05;-6.30;99.90
8910;DHT22;4490;49.072;8.804;2022-12-18T01:01:31;-6.30;99.90
8910;DHT22;4490;49.072;8.804;2022-12-18T01:03:59;-6.30;99.90
8910;DHT22;4490;49.072;8.804;2022-12-18T01:06:24;-6.30;99.90
8910;DHT22;4490;49.072;8.804;2022-12-18T01:08:50;-6.30;99.90
8910;DHT22;4490;49.072;8.804;2022-12-18T01:11:19;-6.30;99.90
8910;DHT22;4490;49.072;8.804;2022-12-18T01:13:45;-6.20;99.90
8910;DHT22;4490;49.072;8.804;2022-12-18T01:16:14;-6.20;99.90
8910;DHT22;4490;49.072;8.804;2022-12-18T01:18:41;-6.20;99.90
8910;DHT22;4490;49.072;8.804;2022-12-18T01:21:08;-6.20;99.90
8910;DHT22;4490;49.072;8.804;2022-12-18T01:23:34;-6.20;99.90
8910;DHT22;4490;49.072;8.804;2022-12-18T01:26:12;-6.20;99.90
8910;DHT22;4490;49.072;8.804;2022-12-18T01:28:38;-6.20;99.90
8910;DHT22;4490;49.072;8.804;2022-12-18T01:31:18;-6.20;99.90
8910;DHT22;4490;49.072;8.804;2022-12-18T01:33:45;-6.20;99.90
8910;DHT22;4490;49.072;8.804;2022-12-18T01:36:23;-6.20;99.90
8910;DHT22;4490;49.072;8.804;2022-12-18T01:38:50;-6.10;99.90
8910;DHT22;4490;49.072;8.804;2022-12-18T01:41:19;-6.20;99.90
8910;DHT22;4490;49.072;8.804;2022-12-18T01:46:14;-6.20;99.90
8910;DHT22;4490;49.072;8.804;2022-12-18T01:48:41;-6.20;99.90
8910;DHT22;4490;49.072;8.804;2022-12-18T01:51:08;-6.20;99.90
8910;DHT22;4490;49.072;8.804;2022-12-18T01:53:36;-6.20;99.90
8910;DHT22;4490;49.072;8.804;2022-12-18T01:56:03;-6.10;99.90
8910;DHT22;4490;49.072;8.804;2022-12-18T01:59:00;-6.10;99.90
8910;DHT22;4490;49.072;8.804;2022-12-18T02:01:29;-6.10;99.90
8910;DHT22;4490;49.072;8.804;2022-12-18T02:04:21;-6.10;99.90
8910;DHT22;4490;49.072;8.804;2022-12-18T02:06:41;-6.10;99.90
8910;DHT22;4490;49.072;8.804;2022-12-18T02:09:15;-6.10;99.90
8910;DHT22;4490;49.072;8.804;2022-12-18T02:12:16;-6.00;99.90
8910;DHT22;4490;49.072;8.804;2022-12-18T02:14:45;-6.00;99.90
8910;DHT22;4490;49.072;8.804;2022-12-18T02:17:37;-6.00;99.90
8910;DHT22;4490;49.072;8.804;2022-12-18T02:20:40;-6.00;99.90
8910;DHT22;4490;49.072;8.804;2022-12-18T02:28:33;-6.00;99.90
8910;DHT22;4490;49.072;8.804;2022-12-18T02:31:02;-6.00;99.90
8910;DHT22;4490;49.072;8.804;2022-12-18T02:33:30;-6.10;99.90
8910;DHT22;4490;49.072;8.804;2022-12-18T02:35:57;-6.10;99.90
8910;DHT22;4490;49.072;8.804;2022-12-18T02:38:24;-6.10;99.90
8910;DHT22;4490;49.072;8.804;2022-12-18T02:40:51;-6.20;99.90
8910;DHT22;4490;49.072;8.804;2022-12-18T02:43:19;-6.20;99.90
8910;DHT22;4490;49.072;8.804;2022-12-18T02:45:56;-6.20;99.90
8910;DHT22;4490;49.072;8.804;2022-12-18T02:48:31;-6.20;99.90
8910;DHT22;4490;49.072;8.804;2022-12-18T02:53:40;-6.20;99.90
8910;DHT22;4490;49.072;8.804;2022-12-18T02:56:17;-6.20;99.90
8910;DHT22;4490;49.072;8.804;2022-12-18T03:01:54;-6.20;99.90
8910;DHT22;4490;49.072;8.804;2022-12-18T03:04:39;-6.20;99.90
8910;DHT22;4490;49.072;8.804;2022-12-18T03:07:13;-6.20;99.90
8910;DHT22;4490;49.072;8.804;2022-12-18T03:09:43;-6.20;99.90
8910;DHT22;4490;49.072;8.804;2022-12-18T03:12:21;-6.20;99.90
8910;DHT22;4490;49.072;8.804;2022-12-18T03:17:40;-6.20;99.90
8910;DHT22;4490;49.072;8.804;2022-12-18T03:20:12;-6.20;99.90
8910;DHT22;4490;49.072;8.804;2022-12-18T03:22:42;-6.20;99.90
8910;DHT22;4490;49.072;8.804;2022-12-18T03:25:10;-6.10;99.90
8910;DHT22;4490;49.072;8.804;2022-12-18T03:27:40;-6.10;99.90
8910;DHT22;4490;49.072;8.804;2022-12-18T03:30:14;-6.10;99.90
8910;DHT22;4490;49.072;8.804;2022-12-18T03:32:54;-6.10;99.90
8910;DHT22;4490;49.072;8.804;2022-12-18T03:35:26;-6.10;99.90
8910;DHT22;4490;49.072;8.804;2022-12-18T03:37:53;-6.20;99.90
8910;DHT22;4490;49.072;8.804;2022-12-18T03:40:25;-6.20;99.90
8910;DHT22;4490;49.072;8.804;2022-12-18T03:42:59;-6.20;99.90
8910;DHT22;4490;49.072;8.804;2022-12-18T03:45:42;-6.20;99.90
8910;DHT22;4490;49.072;8.804;2022-12-18T03:50:48;-6.30;99.90
8910;DHT22;4490;49.072;8.804;2022-12-18T03:56:00;-6.30;99.90
8910;DHT22;4490;49.072;8.804;2022-12-18T03:58:28;-6.40;99.90
8910;DHT22;4490;49.072;8.804;2022-12-18T04:01:00;-6.30;99.90
8910;DHT22;4490;49.072;8.804;2022-12-18T04:03:28;-6.30;99.90
8910;DHT22;4490;49.072;8.804;2022-12-18T04:05:55;-6.30;99.90
8910;DHT22;4490;49.072;8.804;2022-12-18T04:08:23;-6.30;99.90
8910;DHT22;4490;49.072;8.804;2022-12-18T04:10:49;-6.30;99.90
8910;DHT22;4490;49.072;8.804;2022-12-18T04:13:24;-6.30;99.90
8910;DHT22;4490;49.072;8.804;2022-12-18T04:15:53;-6.30;99.90
8910;DHT22;4490;49.072;8.804;2022-12-18T04:18:18;-6.20;99.90
8910;DHT22;4490;49.072;8.804;2022-12-18T04:20:44;-6.20;99.90
8910;DHT22;4490;49.072;8.804;2022-12-18T04:23:10;-6.20;99.90
8910;DHT22;4490;49.072;8.804;2022-12-18T04:25:35;-6.20;99.90
8910;DHT22;4490;49.072;8.804;2022-12-18T04:28:01;-6.10;99.90
8910;DHT22;4490;49.072;8.804;2022-12-18T04:30:26;-6.10;99.90
8910;DHT22;4490;49.072;8.804;2022-12-18T04:32:52;-6.10;99.90
8910;DHT22;4490;49.072;8.804;2022-12-18T04:35:17;-6.10;99.90
8910;DHT22;4490;49.072;8.804;2022-12-18T04:37:43;-6.10;99.90
8910;DHT22;4490;49.072;8.804;2022-12-18T04:40:09;-6.10;99.90
8910;DHT22;4490;49.072;8.804;2022-12-18T04:42:35;-6.00;99.90
8910;DHT22;4490;49.072;8.804;2022-12-18T04:45:00;-6.00;99.90
8910;DHT22;4490;49.072;8.804;2022-12-18T04:47:26;-6.00;99.90
8910;DHT22;4490;49.072;8.804;2022-12-18T04:49:52;-5.90;99.90
8910;DHT22;4490;49.072;8.804;2022-12-18T04:52:17;-5.90;99.90
8910;DHT22;4490;49.072;8.804;2022-12-18T04:54:43;-5.90;99.90
8910;DHT22;4490;49.072;8.804;2022-12-18T04:57:08;-5.80;99.90
8910;DHT22;4490;49.072;8.804;2022-12-18T04:59:34;-5.80;99.90
8910;DHT22;4490;49.072;8.804;2022-12-18T05:01:59;-5.80;99.90
8910;DHT22;4490;49.072;8.804;2022-12-18T05:04:25;-5.80;99.90
8910;DHT22;4490;49.072;8.804;2022-12-18T05:06:51;-5.80;99.90
8910;DHT22;4490;49.072;8.804;2022-12-18T05:09:16;-5.70;99.90
8910;DHT22;4490;49.072;8.804;2022-12-18T05:11:42;-5.70;99.90
8910;DHT22;4490;49.072;8.804;2022-12-18T05:14:07;-5.70;99.90
8910;DHT22;4490;49.072;8.804;2022-12-18T05:16:33;-5.70;99.90
8910;DHT22;4490;49.072;8.804;2022-12-18T05:18:59;-5.70;99.90
8910;DHT22;4490;49.072;8.804;2022-12-18T05:21:24;-5.70;99.90
8910;DHT22;4490;49.072;8.804;2022-12-18T05:23:50;-5.60;99.90
8910;DHT22;4490;49.072;8.804;2022-12-18T05:26:17;-5.70;99.90
8910;DHT22;4490;49.072;8.804;2022-12-18T05:28:43;-5.60;99.90
8910;DHT22;4490;49.072;8.804;2022-12-18T05:31:09;-5.70;99.90
8910;DHT22;4490;49.072;8.804;2022-12-18T05:33:35;-5.60;99.90
8910;DHT22;4490;49.072;8.804;2022-12-18T05:36:02;-5.70;99.90
8910;DHT22;4490;49.072;8.804;2022-12-18T05:38:29;-5.70;99.90
8910;DHT22;4490;49.072;8.804;2022-12-18T05:40:55;-5.70;99.90
8910;DHT22;4490;49.072;8.804;2022-12-18T05:43:22;-5.70;99.90
8910;DHT22;4490;49.072;8.804;2022-12-18T05:45:49;-5.70;99.90
8910;DHT22;4490;49.072;8.804;2022-12-18T05:48:15;-5.70;99.90
8910;DHT22;4490;49.072;8.804;2022-12-18T05:50:42;-5.70;99.90
8910;DHT22;4490;49.072;8.804;2022-12-18T05:53:08;-5.70;99.90
8910;DHT22;4490;49.072;8.804;2022-12-18T05:55:34;-5.70;99.90
8910;DHT22;4490;49.072;8.804;2022-12-18T05:58:01;-5.70;99.90
8910;DHT22;4490;49.072;8.804;2022-12-18T06:00:27;-5.70;99.90
8910;DHT22;4490;49.072;8.804;2022-12-18T06:02:52;-5.70;99.90
8910;DHT22;4490;49.072;8.804;2022-12-18T06:05:18;-5.70;99.90
8910;DHT22;4490;49.072;8.804;2022-12-18T06:07:43;-5.70;99.90
8910;DHT22;4490;49.072;8.804;2022-12-18T06:10:09;-5.70;99.90
8910;DHT22;4490;49.072;8.804;2022-12-18T06:12:35;-5.70;99.90
8910;DHT22;4490;49.072;8.804;2022-12-18T06:15:01;-5.70;99.90
8910;DHT22;4490;49.072;8.804;2022-12-18T06:17:30;-5.80;99.90
8910;DHT22;4490;49.072;8.804;2022-12-18T06:19:57;-5.70;99.90
8910;DHT22;4490;49.072;8.804;2022-12-18T06:22:23;-5.80;99.90
8910;DHT22;4490;49.072;8.804;2022-12-18T06:24:48;-5.80;99.90
8910;DHT22;4490;49.072;8.804;2022-12-18T06:27:14;-5.80;99.90
8910;DHT22;4490;49.072;8.804;2022-12-18T06:29:40;-5.80;99.90
8910;DHT22;4490;49.072;8.804;2022-12-18T06:32:05;-5.80;99.90
8910;DHT22;4490;49.072;8.804;2022-12-18T06:34:31;-5.80;99.90
8910;DHT22;4490;49.072;8.804;2022-12-18T06:36:58;-5.90;99.90
8910;DHT22;4490;49.072;8.804;2022-12-18T06:39:23;-5.90;99.90
8910;DHT22;4490;49.072;8.804;2022-12-18T06:41:49;-5.80;99.90
8910;DHT22;4490;49.072;8.804;2022-12-18T06:44:15;-5.90;99.90
8910;DHT22;4490;49.072;8.804;2022-12-18T06:46:40;-5.90;99.90
8910;DHT22;4490;49.072;8.804;2022-12-18T06:49:06;-5.90;99.90
8910;DHT22;4490;49.072;8.804;2022-12-18T06:51:32;-5.90;99.90
8910;DHT22;4490;49.072;8.804;2022-12-18T06:53:57;-5.90;99.90
8910;DHT22;4490;49.072;8.804;2022-12-18T06:56:23;-5.90;99.90
8910;DHT22;4490;49.072;8.804;2022-12-18T06:58:49;-5.90;99.90
8910;DHT22;4490;49.072;8.804;2022-12-18T07:01:14;-5.90;99.90
8910;DHT22;4490;49.072;8.804;2022-12-18T07:03:41;-5.90;99.90
8910;DHT22;4490;49.072;8.804;2022-12-18T07:06:16;-5.90;99.90
8910;DHT22;4490;49.072;8.804;2022-12-18T07:08:42;-5.90;99.90
8910;DHT22;4490;49.072;8.804;2022-12-18T07:11:08;-5.90;99.90
8910;DHT22;4490;49.072;8.804;2022-12-18T07:13:34;-5.90;99.90
8910;DHT22;4490;49.072;8.804;2022-12-18T07:16:21;-5.90;99.90
8910;DHT22;4490;49.072;8.804;2022-12-18T07:18:47;-5.90;99.90
8910;DHT22;4490;49.072;8.804;2022-12-18T07:21:15;-5.90;99.90
8910;DHT22;4490;49.072;8.804;2022-12-18T07:23:41;-5.90;99.90
8910;DHT22;4490;49.072;8.804;2022-12-18T07:26:09;-5.90;99.90
8910;DHT22;4490;49.072;8.804;2022-12-18T07:28:36;-5.90;99.90
8910;DHT22;4490;49.072;8.804;2022-12-18T07:31:07;-5.90;99.90
8910;DHT22;4490;49.072;8.804;2022-12-18T07:33:34;-5.90;99.90
8910;DHT22;4490;49.072;8.804;2022-12-18T07:36:04;-5.90;99.90
8910;DHT22;4490;49.072;8.804;2022-12-18T07:38:31;-5.90;99.90
8910;DHT22;4490;49.072;8.804;2022-12-18T07:41:01;-5.90;99.90
8910;DHT22;4490;49.072;8.804;2022-12-18T07:43:27;-5.90;99.90
8910;DHT22;4490;49.072;8.804;2022-12-18T07:45:52;-5.90;99.90
8910;DHT22;4490;49.072;8.804;2022-12-18T07:48:18;-5.90;99.90
8910;DHT22;4490;49.072;8.804;2022-12-18T07:50:44;-5.90;99.90
8910;DHT22;4490;49.072;8.804;2022-12-18T07:53:09;-5.90;99.90
8910;DHT22;4490;49.072;8.804;2022-12-18T07:55:35;-5.90;99.90
8910;DHT22;4490;49.072;8.804;2022-12-18T07:58:02;-5.80;99.90
8910;DHT22;4490;49.072;8.804;2022-12-18T08:00:28;-5.80;99.90
8910;DHT22;4490;49.072;8.804;2022-12-18T08:02:53;-5.80;99.90
8910;DHT22;4490;49.072;8.804;2022-12-18T08:05:19;-5.80;99.90
8910;DHT22;4490;49.072;8.804;2022-12-18T08:07:46;-5.70;99.90
8910;DHT22;4490;49.072;8.804;2022-12-18T08:10:12;-5.70;99.90
8910;DHT22;4490;49.072;8.804;2022-12-18T08:12:37;-5.70;99.90
8910;DHT22;4490;49.072;8.804;2022-12-18T08:15:03;-5.60;99.90
8910;DHT22;4490;49.072;8.804;2022-12-18T08:17:29;-5.60;99.90
8910;DHT22;4490;49.072;8.804;2022-12-18T08:19:54;-5.60;99.90
8910;DHT22;4490;49.072;8.804;2022-12-18T08:22:20;-5.60;99.90
8910;DHT22;4490;49.072;8.804;2022-12-18T08:24:45;-5.50;99.90
8910;DHT22;4490;49.072;8.804;2022-12-18T08:27:11;-5.50;99.90
8910;DHT22;4490;49.072;8.804;2022-12-18T08:29:37;-5.50;99.90
8910;DHT22;4490;49.072;8.804;2022-12-18T08:32:03;-5.40;99.90
8910;DHT22;4490;49.072;8.804;2022-12-18T08:34:29;-5.40;99.90
8910;DHT22;4490;49.072;8.804;2022-12-18T08:36:54;-5.30;99.90
8910;DHT22;4490;49.072;8.804;2022-12-18T08:39:20;-5.30;99.90
8910;DHT22;4490;49.072;8.804;2022-12-18T08:41:46;-5.30;99.90
8910;DHT22;4490;49.072;8.804;2022-12-18T08:44:31;-5.20;99.90
8910;DHT22;4490;49.072;8.804;2022-12-18T08:47:03;-5.20;99.90
8910;DHT22;4490;49.072;8.804;2022-12-18T08:49:29;-5.10;99.90
8910;DHT22;4490;49.072;8.804;2022-12-18T08:51:56;-5.10;99.90
8910;DHT22;4490;49.072;8.804;2022-12-18T08:54:25;-5.00;99.90
8910;DHT22;4490;49.072;8.804;2022-12-18T08:56:51;-5.00;99.90
8910;DHT22;4490;49.072;8.804;2022-12-18T08:59:18;-5.00;99.90
8910;DHT22;4490;49.072;8.804;2022-12-18T09:01:44;-4.90;99.90
8910;DHT22;4490;49.072;8.804;2022-12-18T09:04:10;-4.90;99.90
8910;DHT22;4490;49.072;8.804;2022-12-18T09:06:36;-4.80;99.90
8910;DHT22;4490;49.072;8.804;2022-12-18T09:09:03;-4.80;99.90
8910;DHT22;4490;49.072;8.804;2022-12-18T09:11:29;-4.70;99.90
8910;DHT22;4490;49.072;8.804;2022-12-18T09:13:55;-4.70;99.90
8910;DHT22;4490;49.072;8.804;2022-12-18T09:16:22;-4.70;99.90
8910;DHT22;4490;49.072;8.804;2022-12-18T09:18:48;-4.60;99.90
8910;DHT22;4490;49.072;8.804;2022-12-18T09:21:19;-4.60;99.90
8910;DHT22;4490;49.072;8.804;2022-12-18T09:23:49;-4.50;99.90
8910;DHT22;4490;49.072;8.804;2022-12-18T09:26:15;-4.50;99.90
8910;DHT22;4490;49.072;8.804;2022-12-18T09:28:41;-4.40;99.90
8910;DHT22;4490;49.072;8.804;2022-12-18T09:31:08;-4.40;99.90
8910;DHT22;4490;49.072;8.804;2022-12-18T09:33:35;-4.30;99.90
8910;DHT22;4490;49.072;8.804;2022-12-18T09:36:06;-4.30;99.90
8910;DHT22;4490;49.072;8.804;2022-12-18T09:38:32;-4.20;99.90
8910;DHT22;4490;49.072;8.804;2022-12-18T09:41:39;-4.20;99.90
8910;DHT22;4490;49.072;8.804;2022-12-18T09:46:47;-4.10;99.90
8910;DHT22;4490;49.072;8.804;2022-12-18T09:49:19;-4.00;99.90
8910;DHT22;4490;49.072;8.804;2022-12-18T09:52:05;-4.00;99.90
8910;DHT22;4490;49.072;8.804;2022-12-18T09:54:48;-3.90;99.90
8910;DHT22;4490;49.072;8.804;2022-12-18T09:57:20;-3.90;99.90
8910;DHT22;4490;49.072;8.804;2022-12-18T09:59:56;-3.80;99.90
8910;DHT22;4490;49.072;8.804;2022-12-18T10:02:25;-3.70;99.90
8910;DHT22;4490;49.072;8.804;2022-12-18T10:05:19;-3.70;99.90
8910;DHT22;4490;49.072;8.804;2022-12-18T10:07:58;-3.70;99.90
8910;DHT22;4490;49.072;8.804;2022-12-18T10:20:58;-3.50;99.90
8910;DHT22;4490;49.072;8.804;2022-12-18T10:26:25;-3.40;99.90
8910;DHT22;4490;49.072;8.804;2022-12-18T10:28:51;-3.30;99.90
8910;DHT22;4490;49.072;8.804;2022-12-18T10:31:21;-3.30;99.90
8910;DHT22;4490;49.072;8.804;2022-12-18T10:33:47;-3.20;99.90
8910;DHT22;4490;49.072;8.804;2022-12-18T10:36:13;-3.10;99.90
8910;DHT22;4490;49.072;8.804;2022-12-18T10:38:39;-3.10;99.90
8910;DHT22;4490;49.072;8.804;2022-12-18T10:41:08;-3.00;99.90
8910;DHT22;4490;49.072;8.804;2022-12-18T10:46:36;-2.80;99.90
8910;DHT22;4490;49.072;8.804;2022-12-18T10:49:02;-2.80;99.90
8910;DHT22;4490;49.072;8.804;2022-12-18T10:51:30;-2.80;99.90
8910;DHT22;4490;49.072;8.804;2022-12-18T10:53:57;-2.70;99.90
8910;DHT22;4490;49.072;8.804;2022-12-18T10:56:27;-2.70;99.90
8910;DHT22;4490;49.072;8.804;2022-12-18T10:59:04;-2.60;99.90
8910;DHT22;4490;49.072;8.804;2022-12-18T11:04:20;-2.50;99.90
8910;DHT22;4490;49.072;8.804;2022-12-18T11:07:06;-2.40;99.90
8910;DHT22;4490;49.072;8.804;2022-12-18T11:09:34;-2.40;99.90
8910;DHT22;4490;49.072;8.804;2022-12-18T11:12:06;-2.30;99.90
8910;DHT22;4490;49.072;8.804;2022-12-18T11:14:44;-2.30;99.90
8910;DHT22;4490;49.072;8.804;2022-12-18T11:17:35;-2.20;99.90
8910;DHT22;4490;49.072;8.804;2022-12-18T11:20:06;-2.10;99.90
8910;DHT22;4490;49.072;8.804;2022-12-18T11:22:35;-2.10;99.90
8910;DHT22;4490;49.072;8.804;2022-12-18T11:27:51;-2.00;99.90
8910;DHT22;4490;49.072;8.804;2022-12-18T11:30:21;-1.90;99.90
8910;DHT22;4490;49.072;8.804;2022-12-18T11:32:49;-1.90;99.90
8910;DHT22;4490;49.072;8.804;2022-12-18T11:38:27;-1.80;99.90
8910;DHT22;4490;49.072;8.804;2022-12-18T11:43:59;-1.60;99.90
8910;DHT22;4490;49.072;8.804;2022-12-18T11:46:27;-1.50;99.90
8910;DHT22;4490;49.072;8.804;2022-12-18T11:51:55;-1.40;99.90
8910;DHT22;4490;49.072;8.804;2022-12-18T11:54:23;-1.40;99.90
8910;DHT22;4490;49.072;8.804;2022-12-18T11:56:53;-1.30;99.90
8910;DHT22;4490;49.072;8.804;2022-12-18T12:02:25;-1.20;99.90
8910;DHT22;4490;49.072;8.804;2022-12-18T12:21:40;-0.90;99.90
8910;DHT22;4490;49.072;8.804;2022-12-18T12:30:00;-0.70;99.90
8910;DHT22;4490;49.072;8.804;2022-12-18T12:37:44;-0.70;99.90
8910;DHT22;4490;49.072;8.804;2022-12-18T12:40:20;-0.60;99.90
8910;DHT22;4490;49.072;8.804;2022-12-18T12:42:52;-0.60;99.90
8910;DHT22;4490;49.072;8.804;2022-12-18T12:51:08;-0.40;99.90
8910;DHT22;4490;49.072;8.804;2022-12-18T12:53:37;-0.40;99.90
8910;DHT22;4490;49.072;8.804;2022-12-18T12:56:04;-0.40;99.90
8910;DHT22;4490;49.072;8.804;2022-12-18T13:01:00;-0.40;99.90
8910;DHT22;4490;49.072;8.804;2022-12-18T13:09:31;-0.30;99.90
8910;DHT22;4490;49.072;8.804;2022-12-18T13:12:02;-0.20;99.90
8910;DHT22;4490;49.072;8.804;2022-12-18T13:14:47;-0.20;99.90
8910;DHT22;4490;49.072;8.804;2022-12-18T13:24:59;-0.20;99.90
8910;DHT22;4490;49.072;8.804;2022-12-18T13:43:51;-0.20;99.90
8910;DHT22;4490;49.072;8.804;2022-12-18T13:46:24;-0.20;99.90
8910;DHT22;4490;49.072;8.804;2022-12-18T13:51:26;-0.10;99.90
8910;DHT22;4490;49.072;8.804;2022-12-18T13:54:01;-0.10;99.90
8910;DHT22;4490;49.072;8.804;2022-12-18T13:56:30;-0.10;99.90
8910;DHT22;4490;49.072;8.804;2022-12-18T14:01:34;-0.10;99.90
8910;DHT22;4490;49.072;8.804;2022-12-18T14:04:31;-0.10;99.90
8910;DHT22;4490;49.072;8.804;2022-12-18T14:07:07;-0.10;99.90
8910;DHT22;4490;49.072;8.804;2022-12-18T14:09:39;-0.10;99.90
8910;DHT22;4490;49.072;8.804;2022-12-18T14:12:06;-0.20;99.90
8910;DHT22;4490;49.072;8.804;2022-12-18T14:14:56;-0.20;99.90
8910;DHT22;4490;49.072;8.804;2022-12-18T14:17:23;-0.20;99.90
8910;DHT22;4490;49.072;8.804;2022-12-18T14:19:50;-0.20;99.90
8910;DHT22;4490;49.072;8.804;2022-12-18T14:22:21;-0.20;99.90
8910;DHT22;4490;49.072;8.804;2022-12-18T14:25:28;-0.20;99.90
8910;DHT22;4490;49.072;8.804;2022-12-18T14:30:36;-0.30;99.70
8910;DHT22;4490;49.072;8.804;2022-12-18T14:35:36;-0.30;99.90
8910;DHT22;4490;49.072;8.804;2022-12-18T14:41:05;-0.30;99.90
8910;DHT22;4490;49.072;8.804;2022-12-18T14:43:34;-0.40;99.90
8910;DHT22;4490;49.072;8.804;2022-12-18T14:46:00;-0.40;99.90
8910;DHT22;4490;49.072;8.804;2022-12-18T14:48:43;-0.50;99.90
8910;DHT22;4490;49.072;8.804;2022-12-18T14:51:26;-0.50;99.90
8910;DHT22;4490;49.072;8.804;2022-12-18T14:56:33;-0.50;99.90
8910;DHT22;4490;49.072;8.804;2022-12-18T14:59:02;-0.60;99.90
8910;DHT22;4490;49.072;8.804;2022-12-18T15:01:44;-0.60;99.90
8910;DHT22;4490;49.072;8.804;2022-12-18T15:04:39;-0.60;99.90
8910;DHT22;4490;49.072;8.804;2022-12-18T15:09:35;-0.70;99.90
8910;DHT22;4490;49.072;8.804;2022-12-18T15:12:01;-0.70;99.90
8910;DHT22;4490;49.072;8.804;2022-12-18T15:16:56;-0.70;99.90
8910;DHT22;4490;49.072;8.804;2022-12-18T15:19:37;-0.80;99.90
8910;DHT22;4490;49.072;8.804;2022-12-18T15:22:04;-0.80;99.90
8910;DHT22;4490;49.072;8.804;2022-12-18T15:24:31;-0.80;99.90
8910;DHT22;4490;49.072;8.804;2022-12-18T15:27:00;-0.80;99.90
8910;DHT22;4490;49.072;8.804;2022-12-18T15:29:26;-0.90;99.90
8910;DHT22;4490;49.072;8.804;2022-12-18T15:32:03;-0.90;99.90
8910;DHT22;4490;49.072;8.804;2022-12-18T15:34:29;-0.90;99.90
8910;DHT22;4490;49.072;8.804;2022-12-18T15:36:55;-1.00;99.90
8910;DHT22;4490;49.072;8.804;2022-12-18T15:39:20;-1.00;99.90
8910;DHT22;4490;49.072;8.804;2022-12-18T15:41:46;-1.00;99.90
8910;DHT22;4490;49.072;8.804;2022-12-18T15:44:31;-1.10;99.90
8910;DHT22;4490;49.072;8.804;2022-12-18T15:46:57;-1.10;99.90
8910;DHT22;4490;49.072;8.804;2022-12-18T15:49:23;-1.10;99.90
8910;DHT22;4490;49.072;8.804;2022-12-18T15:51:56;-1.10;99.90
8910;DHT22;4490;49.072;8.804;2022-12-18T15:54:23;-1.20;99.90
8910;DHT22;4490;49.072;8.804;2022-12-18T15:57:12;-1.20;99.90
8910;DHT22;4490;49.072;8.804;2022-12-18T15:59:51;-1.20;99.90
8910;DHT22;4490;49.072;8.804;2022-12-18T16:02:19;-1.20;99.90
8910;DHT22;4490;49.072;8.804;2022-12-18T16:04:45;-1.20;99.90
8910;DHT22;4490;49.072;8.804;2022-12-18T16:07:14;-1.20;99.90
8910;DHT22;4490;49.072;8.804;2022-12-18T16:09:40;-1.20;99.90
8910;DHT22;4490;49.072;8.804;2022-12-18T16:12:18;-1.20;99.90
8910;DHT22;4490;49.072;8.804;2022-12-18T16:14:44;-1.20;99.90
8910;DHT22;4490;49.072;8.804;2022-12-18T16:17:11;-1.20;99.90
8910;DHT22;4490;49.072;8.804;2022-12-18T16:19:37;-1.30;99.90
8910;DHT22;4490;49.072;8.804;2022-12-18T16:22:03;-1.30;99.90
8910;DHT22;4490;49.072;8.804;2022-12-18T16:24:32;-1.20;99.90
8910;DHT22;4490;49.072;8.804;2022-12-18T16:26:59;-1.20;99.90
8910;DHT22;4490;49.072;8.804;2022-12-18T16:29:26;-1.20;99.90
8910;DHT22;4490;49.072;8.804;2022-12-18T16:32:01;-1.20;99.90
8910;DHT22;4490;49.072;8.804;2022-12-18T16:34:32;-1.20;99.90
8910;DHT22;4490;49.072;8.804;2022-12-18T16:37:04;-1.20;99.90
8910;DHT22;4490;49.072;8.804;2022-12-18T16:39:30;-1.20;99.90
8910;DHT22;4490;49.072;8.804;2022-12-18T16:41:56;-1.20;99.90
8910;DHT22;4490;49.072;8.804;2022-12-18T16:44:22;-1.20;99.90
8910;DHT22;4490;49.072;8.804;2022-12-18T16:46:47;-1.10;99.90
8910;DHT22;4490;49.072;8.804;2022-12-18T16:49:15;-1.10;99.90
8910;DHT22;4490;49.072;8.804;2022-12-18T16:51:42;-1.10;99.90
8910;DHT22;4490;49.072;8.804;2022-12-18T16:54:08;-1.10;99.90
8910;DHT22;4490;49.072;8.804;2022-12-18T16:56:33;-1.10;99.90
8910;DHT22;4490;49.072;8.804;2022-12-18T16:59:00;-1.10;99.90
8910;DHT22;4490;49.072;8.804;2022-12-18T17:01:28;-1.10;99.90
8910;DHT22;4490;49.072;8.804;2022-12-18T17:06:23;-1.00;99.90
8910;DHT22;4490;49.072;8.804;2022-12-18T17:08:57;-1.00;99.90
8910;DHT22;4490;49.072;8.804;2022-12-18T17:11:24;-1.00;99.90
8910;DHT22;4490;49.072;8.804;2022-12-18T17:13:50;-1.00;99.90
8910;DHT22;4490;49.072;8.804;2022-12-18T17:16:18;-1.00;99.90
8910;DHT22;4490;49.072;8.804;2022-12-18T17:18:44;-0.90;99.90
8910;DHT22;4490;49.072;8.804;2022-12-18T17:21:11;-0.90;99.90
8910;DHT22;4490;49.072;8.804;2022-12-18T17:23:39;-0.90;99.90
8910;DHT22;4490;49.072;8.804;2022-12-18T17:26:06;-0.90;99.90
8910;DHT22;4490;49.072;8.804;2022-12-18T17:28:33;-0.90;99.90
8910;DHT22;4490;49.072;8.804;2022-12-18T17:30:59;-0.90;99.90
8910;DHT22;4490;49.072;8.804;2022-12-18T17:33:25;-0.90;99.90
8910;DHT22;4490;49.072;8.804;2022-12-18T17:35:51;-0.90;99.90
8910;DHT22;4490;49.072;8.804;2022-12-18T17:38:17;-0.90;99.90
8910;DHT22;4490;49.072;8.804;2022-12-18T17:40:42;-0.90;99.90
8910;DHT22;4490;49.072;8.804;2022-12-18T17:43:09;-0.90;99.90
8910;DHT22;4490;49.072;8.804;2022-12-18T17:45:38;-0.90;99.90
8910;DHT22;4490;49.072;8.804;2022-12-18T17:48:05;-0.90;99.90
8910;DHT22;4490;49.072;8.804;2022-12-18T17:50:32;-0.90;99.90
8910;DHT22;4490;49.072;8.804;2022-12-18T17:52:59;-0.90;99.90
8910;DHT22;4490;49.072;8.804;2022-12-18T17:55:25;-0.90;99.90
8910;DHT22;4490;49.072;8.804;2022-12-18T17:57:51;-0.90;99.90
8910;DHT22;4490;49.072;8.804;2022-12-18T18:00:17;-0.90;99.90
8910;DHT22;4490;49.072;8.804;2022-12-18T18:02:43;-0.90;99.90
8910;DHT22;4490;49.072;8.804;2022-12-18T18:05:09;-0.90;99.90
8910;DHT22;4490;49.072;8.804;2022-12-18T18:07:36;-1.00;99.90
8910;DHT22;4490;49.072;8.804;2022-12-18T18:10:02;-1.00;99.90
8910;DHT22;4490;49.072;8.804;2022-12-18T18:12:28;-1.00;99.90
8910;DHT22;4490;49.072;8.804;2022-12-18T18:15:12;-1.00;99.90
8910;DHT22;4490;49.072;8.804;2022-12-18T18:17:37;-1.00;99.90
8910;DHT22;4490;49.072;8.804;2022-12-18T18:20:04;-1.00;99.90
8910;DHT22;4490;49.072;8.804;2022-12-18T18:22:31;-1.00;99.90
8910;DHT22;4490;49.072;8.804;2022-12-18T18:24:56;-0.90;99.90
8910;DHT22;4490;49.072;8.804;2022-12-18T18:27:22;-0.90;99.90
8910;DHT22;4490;49.072;8.804;2022-12-18T18:29:47;-0.90;99.90
8910;DHT22;4490;49.072;8.804;2022-12-18T18:32:13;-0.90;99.90
8910;DHT22;4490;49.072;8.804;2022-12-18T18:34:39;-0.90;99.90
8910;DHT22;4490;49.072;8.804;2022-12-18T18:37:04;-0.90;99.90
8910;DHT22;4490;49.072;8.804;2022-12-18T18:39:30;-0.80;99.90
8910;DHT22;4490;49.072;8.804;2022-12-18T18:41:56;-0.80;99.90